x

Passage Island, Mi (pilm4) Weather Station

4:00am - Wed 27th May 2015 All times are CDT. -5 hours from GMT.

  • Wind
    10mph
  • Air Temp 42°f
  • Sea Pressure 1007.5mb
  • Passage Island, Mi
  • Passage Island, Mi

More Historic Weather Station data

Upgrade to MSW Pro to gain access to the past 30 days of data for over 8000 Wavebouys and Weather Stations around the globe.

Join Pro

Comparision Forecast

View Surf forecast
   
Wed 05/27 4:00am 10
mph
1007.5mb 42f
3:00am 3
mph
1007.5mb 40f
2:00am 8 9 mph 1008mb 37f
1:00am  -  2 mph 1008.6mb 38f
12:00am 3 5 mph 1009mb 41f
Tue 05/26 11:00pm 8
mph
1009.8mb 38f
10:00pm 13
mph
1010.1mb 40f
9:00pm 6 7 mph 1009.8mb 40f
8:00pm 5
mph
1010mb 40f
7:00pm 2
mph
1010.2mb 42f
6:00pm 8 9 mph 1010.6mb 41f
5:00pm 5 8 mph 1011.2mb 49f
4:00pm 8 9 mph 1011.8mb 51f
3:00pm 3
mph
1011.6mb 55f
2:00pm 9
mph
1012.4mb 52f
1:00pm 7
mph
1012.6mb 49f
12:00pm 7 8 mph 1013mb 52f
11:00am 5
mph
1012.7mb 54f
10:00am 8 9 mph 1012.2mb 51f
9:00am 14 17 mph 1012.1mb 48f
8:00am 9 10 mph 1012.1mb 47f
7:00am 8 10 mph 1011.4mb 47f
6:00am 7 10 mph 1011mb 48f
5:00am 9 11 mph 1010.2mb 46f
4:00am 10 15 mph 1009.4mb 44f
3:00am 6 9 mph 1009.3mb 47f
2:00am 7 10 mph 1008.9mb 47f
1:00am 11 15 mph 1009mb 48f
12:00am 15 18 mph 1008.6mb 49f
Mon 05/25 11:00pm 15 18 mph 1008.7mb 48f
10:00pm 16 20 mph 1008.2mb 47f
9:00pm 18 24 mph 1007.8mb 48f
8:00pm 16 20 mph 1007.9mb 47f
7:00pm 20 24 mph 1007.7mb 50f
6:00pm 14 18 mph 1008.1mb 48f
5:00pm 20 23 mph 1007.9mb 49f
4:00pm 25 29 mph 1008.1mb 50f
3:00pm 18 24 mph 1008.4mb 47f
2:00pm 18 23 mph 1009.2mb 46f
1:00pm 15 18 mph 1010.4mb 45f
12:00pm 16 18 mph 1011.2mb 43f
11:00am 15 16 mph 1011.8mb 44f
10:00am 13 14 mph 1012.6mb 40f
9:00am 6 7 mph 1013.1mb 42f
8:00am 9 10 mph 1013.2mb 41f
7:00am 10
mph
1013.7mb 38f
6:00am 8 9 mph 1013.7mb 39f
5:00am 1 2 mph 1013.6mb 41f
4:00am 3
mph
1014.2mb 40f
3:00am 6
mph
1014.4mb 41f
2:00am 10
mph
1014.7mb 41f
1:00am 11
mph
1015.1mb 43f
12:00am 8
mph
1015.6mb 49f
Sun 05/24 11:00pm 11 13 mph 1015.8mb 47f
10:00pm 14 16 mph 1016.2mb 46f
9:00pm 14
mph
1016.1mb 47f
8:00pm 10 11 mph 1015.3mb 49f
7:00pm 6 7 mph 1015.4mb 54f
6:00pm 9 10 mph 1015.9mb 51f
5:00pm 9 10 mph 1016.3mb 53f
4:00pm 18 23 mph 1016.9mb 54f
3:00pm 18 20 mph 1017.5mb 52f
2:00pm 11
mph
1018.4mb 52f
1:00pm 13 14 mph 1019mb 50f
12:00pm 10 13 mph 1019.5mb 51f
11:00am 11 13 mph 1019.4mb 55f
10:00am 7 8 mph 1019.7mb 46f
9:00am 9 10 mph 1019.6mb 48f
8:00am 10 13 mph 1019.8mb 48f
7:00am 9 13 mph 1020.1mb 50f
6:00am 24 25 mph 1020mb 49f
5:00am 28 29 mph 1019.8mb 50f
4:00am 18 20 mph 1019.3mb 46f
3:00am 8 9 mph 1019.5mb 46f
2:00am 10 11 mph 1019.4mb 48f
1:00am 28 29 mph 1019.3mb 60f
12:00am 28 29 mph 1019.6mb 54f
Sat 05/23 11:00pm 26 31 mph 1020mb 50f
10:00pm 15
mph
1019.9mb 60f
9:00pm 10 11 mph 1019.9mb 60f
8:00pm 3 5 mph 1020.5mb 62f
7:00pm 21 28 mph 1019.8mb 56f
6:00pm 29 36 mph 1019.5mb 60f
5:00pm 28 34 mph 1019.8mb 49f
4:00pm 31 33 mph 1018.9mb -
3:00pm 23 25 mph 1019.7mb 49f
2:00pm 17 20 mph 1020mb 47f
1:00pm 29 30 mph 1019.7mb 52f
12:00pm 30 31 mph 1019.8mb 56f
11:00am 31 32 mph 1020mb 51f